Time;durP1;ratioP1;P1;durP2;ratioP2;P2;SDS_P1;SDS_P2;PMS_P1;PMS_P2;Temp;Humidity;BMP_temperature;BMP_pressure;BME280_temperature;BME280_humidity;BME280_pressure;Samples;Min_cycle;Max_cycle;Signal;HPM_P1;HPM_P2
2021/03/14 00:01:03;;;;;;;12.43;3.13;;;;;;;;;;5135240;27;20039;-77
2021/03/14 00:03:30;;;;;;;8.55;3.10;;;;;;;;;;5134865;27;20139;-77
2021/03/14 00:05:57;;;;;;;5.22;2.70;;;;;;;;;;5116847;27;20039;-78
2021/03/14 00:08:24;;;;;;;12.02;3.10;;;;;;;;;;5135237;27;20080;-77
2021/03/14 00:10:55;;;;;;;14.38;2.90;;;;;;;;;;5135054;27;20062;-77
2021/03/14 00:13:24;;;;;;;8.82;2.53;;;;;;;;;;5134393;27;20031;-77
2021/03/14 00:15:51;;;;;;;10.02;3.72;;;;;;;;;;5116440;27;20511;-77
2021/03/14 00:18:18;;;;;;;10.05;3.05;;;;;;;;;;5116363;27;20121;-77
2021/03/14 00:20:44;;;;;;;8.00;3.20;;;;;;;;;;5134999;27;20460;-77
2021/03/14 00:23:09;;;;;;;9.55;3.08;;;;;;;;;;5129316;27;20027;-77
2021/03/14 00:25:35;;;;;;;10.57;3.17;;;;;;;;;;5113892;28;20035;-77
2021/03/14 00:28:01;;;;;;;9.43;2.72;;;;;;;;;;5113925;28;20035;-77
2021/03/14 00:30:27;;;;;;;9.32;2.78;;;;;;;;;;5114002;28;20026;-77
2021/03/14 00:32:53;;;;;;;6.13;2.20;;;;;;;;;;5114093;28;20104;-77
2021/03/14 00:35:19;;;;;;;8.43;2.92;;;;;;;;;;5113839;28;20035;-77
2021/03/14 00:37:45;;;;;;;11.45;3.65;;;;;;;;;;5113992;28;20045;-77
2021/03/14 00:40:11;;;;;;;12.02;3.88;;;;;;;;;;5114022;28;20071;-77
2021/03/14 00:42:36;;;;;;;9.77;3.25;;;;;;;;;;5113899;28;20042;-77
2021/03/14 00:45:04;;;;;;;10.23;3.58;;;;;;;;;;5113513;28;20063;-77
2021/03/14 00:47:29;;;;;;;10.40;4.10;;;;;;;;;;5113825;28;20534;-77
2021/03/14 00:49:55;;;;;;;9.30;3.28;;;;;;;;;;5113735;28;20031;-77
2021/03/14 00:52:20;;;;;;;15.25;4.45;;;;;;;;;;5112950;28;20560;-77
2021/03/14 00:54:48;;;;;;;8.75;3.65;;;;;;;;;;5115868;28;20024;-77
2021/03/14 00:57:14;;;;;;;11.15;3.67;;;;;;;;;;5133886;28;20042;-77
2021/03/14 00:59:39;;;;;;;8.07;4.05;;;;;;;;;;5134169;28;20049;-77
2021/03/14 01:02:05;;;;;;;9.93;3.30;;;;;;;;;;5134052;28;20067;-77
2021/03/14 01:04:31;;;;;;;12.18;3.33;;;;;;;;;;5098704;28;20031;-77
2021/03/14 01:06:56;;;;;;;8.48;3.35;;;;;;;;;;5134065;28;20027;-77
2021/03/14 01:09:21;;;;;;;9.45;3.55;;;;;;;;;;5115838;28;20439;-77
2021/03/14 01:11:47;;;;;;;8.15;4.22;;;;;;;;;;5115632;28;20028;-77
2021/03/14 01:14:19;;;;;;;16.15;4.25;;;;;;;;;;5115764;28;20023;-76
2021/03/14 01:16:57;;;;;;;9.07;3.20;;;;;;;;;;5115803;28;20042;-76
2021/03/14 01:19:27;;;;;;;10.90;4.18;;;;;;;;;;5115013;28;20027;-76
2021/03/14 01:21:52;;;;;;;9.88;3.22;;;;;;;;;;5134151;28;20104;-76
2021/03/14 01:24:18;;;;;;;8.15;3.55;;;;;;;;;;5134976;27;20485;-76
2021/03/14 01:26:43;;;;;;;7.45;3.40;;;;;;;;;;5137987;27;20126;-77
2021/03/14 01:29:09;;;;;;;9.15;3.85;;;;;;;;;;5119648;27;20118;-76
2021/03/14 01:31:34;;;;;;;10.15;4.15;;;;;;;;;;5138083;27;20069;-76
2021/03/14 01:34:00;;;;;;;8.02;2.78;;;;;;;;;;5141053;27;20061;-79
2021/03/14 01:36:25;;;;;;;9.90;3.47;;;;;;;;;;5138526;27;20035;-76
2021/03/14 01:38:51;;;;;;;11.23;3.80;;;;;;;;;;5137762;27;20076;-76
2021/03/14 01:41:16;;;;;;;7.38;3.53;;;;;;;;;;5137816;27;20110;-76
2021/03/14 01:43:42;;;;;;;11.27;4.00;;;;;;;;;;5138513;27;20403;-77
2021/03/14 01:46:09;;;;;;;6.20;2.90;;;;;;;;;;5137728;27;20074;-76
2021/03/14 01:48:36;;;;;;;8.55;3.35;;;;;;;;;;5137705;27;20035;-76
2021/03/14 01:51:03;;;;;;;14.50;4.43;;;;;;;;;;5119674;27;20457;-76
2021/03/14 01:53:28;;;;;;;13.18;3.85;;;;;;;;;;5119088;27;20042;-76
2021/03/14 01:55:54;;;;;;;5.03;3.33;;;;;;;;;;5137669;27;20035;-76
2021/03/14 01:58:21;;;;;;;13.52;3.38;;;;;;;;;;5137378;27;20046;-77
2021/03/14 02:00:46;;;;;;;10.25;3.47;;;;;;;;;;5137449;27;20038;-77
2021/03/14 02:03:12;;;;;;;7.60;3.20;;;;;;;;;;5137502;27;20384;-77
2021/03/14 02:05:38;;;;;;;9.73;3.72;;;;;;;;;;5137216;27;20032;-77
2021/03/14 02:08:03;;;;;;;13.85;3.80;;;;;;;;;;5137258;27;20541;-77
2021/03/14 02:10:31;;;;;;;11.43;3.90;;;;;;;;;;5136865;27;20100;-77
2021/03/14 02:13:18;;;;;;;6.20;3.40;;;;;;;;;;5137298;27;20054;-77
2021/03/14 02:15:48;;;;;;;10.43;3.90;;;;;;;;;;5118650;27;20373;-77
2021/03/14 02:18:15;;;;;;;9.63;3.47;;;;;;;;;;5137122;27;20451;-77
2021/03/14 02:20:41;;;;;;;9.98;3.38;;;;;;;;;;5137109;27;20027;-77
2021/03/14 02:23:13;;;;;;;8.43;3.35;;;;;;;;;;5101595;27;20035;-77
2021/03/14 02:25:46;;;;;;;10.13;3.33;;;;;;;;;;5136812;27;20117;-77
2021/03/14 02:28:12;;;;;;;6.60;3.10;;;;;;;;;;5137100;27;20071;-77
2021/03/14 02:30:40;;;;;;;8.98;3.80;;;;;;;;;;5136885;27;20057;-77
2021/03/14 02:33:06;;;;;;;13.70;4.32;;;;;;;;;;5118505;27;20035;-77
2021/03/14 02:35:31;;;;;;;9.18;4.38;;;;;;;;;;5135839;27;20035;-77
2021/03/14 02:37:57;;;;;;;7.85;3.65;;;;;;;;;;5136621;27;20035;-77
2021/03/14 02:40:24;;;;;;;10.98;3.25;;;;;;;;;;5136863;27;20388;-77
2021/03/14 02:42:50;;;;;;;14.27;4.78;;;;;;;;;;5136714;27;20035;-77
2021/03/14 02:45:17;;;;;;;7.07;3.15;;;;;;;;;;5136333;27;20039;-77
2021/03/14 02:47:43;;;;;;;10.32;3.60;;;;;;;;;;5136617;27;20030;-77
2021/03/14 02:50:11;;;;;;;14.48;3.67;;;;;;;;;;5117923;27;20611;-77
2021/03/14 02:52:38;;;;;;;15.63;3.47;;;;;;;;;;5118022;27;20037;-77
2021/03/14 02:55:04;;;;;;;13.73;4.00;;;;;;;;;;5136504;27;20028;-77
2021/03/14 02:57:30;;;;;;;15.43;4.43;;;;;;;;;;5136301;27;20465;-77
2021/03/14 02:59:56;;;;;;;17.60;3.60;;;;;;;;;;5136480;27;20027;-77
2021/03/14 03:02:22;;;;;;;11.70;3.53;;;;;;;;;;5136541;27;20536;-77
2021/03/14 03:04:49;;;;;;;6.55;3.35;;;;;;;;;;5136334;27;20556;-77
2021/03/14 03:07:17;;;;;;;10.80;3.28;;;;;;;;;;5117684;27;20026;-78
2021/03/14 03:09:46;;;;;;;10.30;3.72;;;;;;;;;;5136209;27;20026;-77
2021/03/14 03:12:15;;;;;;;14.50;4.55;;;;;;;;;;5135759;27;20118;-77
2021/03/14 03:14:42;;;;;;;13.30;4.00;;;;;;;;;;5135992;27;20035;-77
2021/03/14 03:17:08;;;;;;;11.95;4.25;;;;;;;;;;5136141;27;20035;-77
2021/03/14 03:19:35;;;;;;;13.45;3.83;;;;;;;;;;5127357;27;20114;-77
2021/03/14 03:22:01;;;;;;;13.10;3.40;;;;;;;;;;5115340;28;20032;-77
2021/03/14 03:24:26;;;;;;;11.38;4.65;;;;;;;;;;5114843;28;20081;-77
2021/03/14 03:26:52;;;;;;;10.60;4.07;;;;;;;;;;5096908;28;20416;-77
2021/03/14 03:29:18;;;;;;;14.82;4.63;;;;;;;;;;5096741;28;20122;-77
2021/03/14 03:31:45;;;;;;;15.30;5.53;;;;;;;;;;5115105;28;20038;-77
2021/03/14 03:34:12;;;;;;;8.15;3.90;;;;;;;;;;5114956;28;20032;-77
2021/03/14 03:36:38;;;;;;;13.90;4.03;;;;;;;;;;5115015;28;20077;-77
2021/03/14 03:39:10;;;;;;;8.77;3.95;;;;;;;;;;5115072;28;20032;-77
2021/03/14 03:42:06;;;;;;;9.95;3.88;;;;;;;;;;5114944;28;20040;-77
2021/03/14 03:44:35;;;;;;;10.67;4.07;;;;;;;;;;5106083;28;20394;-77
2021/03/14 03:47:01;;;;;;;10.73;4.00;;;;;;;;;;5114370;28;20281;-77
2021/03/14 03:49:29;;;;;;;12.10;4.22;;;;;;;;;;5121459;27;20027;-77
2021/03/14 03:51:57;;;;;;;8.63;4.50;;;;;;;;;;5135389;27;20476;-77
2021/03/14 03:54:23;;;;;;;19.23;4.47;;;;;;;;;;5135468;27;20031;-77
2021/03/14 03:56:53;;;;;;;14.93;4.93;;;;;;;;;;5116517;27;20031;-77
2021/03/14 03:59:20;;;;;;;13.07;4.18;;;;;;;;;;5135247;27;20035;-77
2021/03/14 04:01:46;;;;;;;16.27;5.22;;;;;;;;;;5116697;27;20045;-77
2021/03/14 04:04:12;;;;;;;13.55;4.00;;;;;;;;;;5135131;27;20031;-77
2021/03/14 04:06:39;;;;;;;18.15;5.22;;;;;;;;;;5134941;27;20047;-77
2021/03/14 04:09:07;;;;;;;13.55;4.05;;;;;;;;;;5116436;27;20092;-77
2021/03/14 04:11:33;;;;;;;12.90;3.85;;;;;;;;;;5134975;27;20046;-77
2021/03/14 04:13:58;;;;;;;14.13;4.30;;;;;;;;;;5135027;27;20031;-77
2021/03/14 04:16:24;;;;;;;10.93;3.85;;;;;;;;;;5134798;27;20035;-77
2021/03/14 04:18:51;;;;;;;12.32;4.32;;;;;;;;;;5114708;27;20430;-77
2021/03/14 04:21:18;;;;;;;13.68;4.60;;;;;;;;;;5096072;28;20121;-77
2021/03/14 04:23:50;;;;;;;12.80;4.38;;;;;;;;;;5114197;28;20036;-76
2021/03/14 04:26:21;;;;;;;13.30;3.72;;;;;;;;;;5115567;28;20035;-79
2021/03/14 04:28:48;;;;;;;14.60;4.22;;;;;;;;;;5114802;28;20039;-77
2021/03/14 04:31:16;;;;;;;10.82;4.20;;;;;;;;;;5095772;28;20023;-77
2021/03/14 04:33:42;;;;;;;12.25;4.40;;;;;;;;;;5114229;28;20035;-77
2021/03/14 04:36:09;;;;;;;11.25;4.15;;;;;;;;;;5114164;28;20081;-77
2021/03/14 04:38:36;;;;;;;11.13;3.95;;;;;;;;;;5114353;28;20038;-80
2021/03/14 04:41:02;;;;;;;11.43;3.88;;;;;;;;;;5113915;28;20104;-77
2021/03/14 04:43:28;;;;;;;8.55;3.85;;;;;;;;;;5114559;28;20031;-79
2021/03/14 04:45:55;;;;;;;9.05;4.05;;;;;;;;;;5095957;28;20043;-77
2021/03/14 04:48:21;;;;;;;12.48;4.72;;;;;;;;;;5114401;28;20043;-77
2021/03/14 04:50:51;;;;;;;13.05;3.88;;;;;;;;;;5132058;27;20038;-77
2021/03/14 04:53:19;;;;;;;13.55;4.32;;;;;;;;;;5116034;28;20035;-77
2021/03/14 04:55:45;;;;;;;18.52;5.55;;;;;;;;;;5115885;28;20130;-77
2021/03/14 04:58:19;;;;;;;15.38;5.22;;;;;;;;;;5136510;27;20027;-79
2021/03/14 05:00:44;;;;;;;14.60;5.00;;;;;;;;;;5141850;27;20027;-80
2021/03/14 05:03:13;;;;;;;10.23;3.95;;;;;;;;;;5143883;27;20396;-80
2021/03/14 05:05:49;;;;;;;10.88;5.00;;;;;;;;;;5141539;27;20038;-77
2021/03/14 05:08:17;;;;;;;;;;;;;;;;;;5106146;27;20050;-77
2021/03/14 05:10:43;;;;;;;18.05;4.90;;;;;;;;;;5122838;27;19911;-79
2021/03/14 05:13:09;;;;;;;13.10;3.83;;;;;;;;;;5141101;27;20034;-77
2021/03/14 05:15:36;;;;;;;14.82;4.38;;;;;;;;;;5140871;27;20381;-77
2021/03/14 05:18:02;;;;;;;19.65;4.70;;;;;;;;;;5141171;27;20039;-77
2021/03/14 05:20:28;;;;;;;14.00;4.50;;;;;;;;;;5142537;27;20038;-79
2021/03/14 05:22:56;;;;;;;16.08;5.07;;;;;;;;;;5144115;27;20110;-79
2021/03/14 05:25:22;;;;;;;24.95;5.90;;;;;;;;;;5144088;27;20035;-77
2021/03/14 05:27:50;;;;;;;15.50;4.88;;;;;;;;;;5142048;27;20031;-79
2021/03/14 05:30:27;;;;;;;20.00;5.75;;;;;;;;;;5143792;27;20031;-79
2021/03/14 05:32:54;;;;;;;17.35;5.00;;;;;;;;;;5143629;27;20109;-77
2021/03/14 05:35:26;;;;;;;13.57;4.90;;;;;;;;;;5140436;27;20388;-77
2021/03/14 05:37:53;;;;;;;13.27;4.82;;;;;;;;;;5140866;27;20035;-77
2021/03/14 05:40:20;;;;;;;17.73;6.30;;;;;;;;;;5123365;27;20027;-77
2021/03/14 05:42:47;;;;;;;15.85;6.38;;;;;;;;;;5140783;27;20039;-77
2021/03/14 05:45:13;;;;;;;18.63;6.35;;;;;;;;;;5140736;27;20036;-78
2021/03/14 05:47:40;;;;;;;17.02;5.82;;;;;;;;;;5141616;27;20045;-78
2021/03/14 05:50:11;;;;;;;16.48;6.90;;;;;;;;;;5140440;27;20046;-80
2021/03/14 05:52:42;;;;;;;13.05;6.55;;;;;;;;;;5141974;27;20034;-77
2021/03/14 05:55:20;;;;;;;23.05;6.80;;;;;;;;;;5140982;27;20034;-77
2021/03/14 05:57:48;;;;;;;19.55;7.00;;;;;;;;;;5141022;27;20027;-78
2021/03/14 06:00:23;;;;;;;14.73;7.05;;;;;;;;;;5122686;27;20376;-78
2021/03/14 06:02:50;;;;;;;23.93;8.00;;;;;;;;;;5141037;27;20056;-77
2021/03/14 06:05:16;;;;;;;14.52;6.60;;;;;;;;;;5122233;27;20031;-77
2021/03/14 06:07:42;;;;;;;15.55;6.68;;;;;;;;;;5140631;27;20035;-77
2021/03/14 06:10:07;;;;;;;19.55;7.43;;;;;;;;;;5139516;27;20350;-77
2021/03/14 06:12:34;;;;;;;16.55;7.15;;;;;;;;;;5136818;27;20125;-77
2021/03/14 06:14:59;;;;;;;18.25;8.20;;;;;;;;;;5138195;27;20533;-78
2021/03/14 06:17:27;;;;;;;15.18;7.18;;;;;;;;;;5120031;27;20070;-78
2021/03/14 06:19:53;;;;;;;25.20;9.20;;;;;;;;;;5127336;27;20072;-78
2021/03/14 06:22:21;;;;;;;21.23;8.27;;;;;;;;;;5100038;28;20039;-78
2021/03/14 06:24:48;;;;;;;21.38;8.70;;;;;;;;;;5117379;28;20040;-78
2021/03/14 06:27:51;;;;;;;19.48;8.43;;;;;;;;;;5117499;28;20043;-78
2021/03/14 06:30:18;;;;;;;19.52;9.30;;;;;;;;;;5117047;28;20134;-78
2021/03/14 06:33:05;;;;;;;21.88;9.80;;;;;;;;;;5104698;28;20534;-78
2021/03/14 06:35:51;;;;;;;20.48;8.48;;;;;;;;;;5118281;28;20027;-78
2021/03/14 06:38:46;;;;;;;21.77;8.68;;;;;;;;;;5116965;28;20035;-77
2021/03/14 06:41:17;;;;;;;14.43;8.07;;;;;;;;;;5100908;28;20047;-77
2021/03/14 06:43:50;;;;;;;17.60;8.52;;;;;;;;;;5097677;28;20039;-77
2021/03/14 06:46:26;;;;;;;22.02;9.98;;;;;;;;;;5115916;28;20040;-77
2021/03/14 06:49:09;;;;;;;20.25;8.70;;;;;;;;;;5118390;27;20048;-77
2021/03/14 06:51:38;;;;;;;15.27;7.57;;;;;;;;;;5117471;27;20126;-77
2021/03/14 06:54:22;;;;;;;17.92;8.65;;;;;;;;;;5136679;27;20499;-77
2021/03/14 06:57:04;;;;;;;18.40;7.80;;;;;;;;;;5136372;27;20507;-75
2021/03/14 06:59:32;;;;;;;17.65;7.07;;;;;;;;;;5117783;27;20047;-75
2021/03/14 07:02:09;;;;;;;16.38;6.47;;;;;;;;;;5135977;27;20035;-75
2021/03/14 07:04:37;;;;;;;15.68;6.22;;;;;;;;;;5135804;27;20069;-75
2021/03/14 07:07:03;;;;;;;16.23;7.13;;;;;;;;;;5135910;27;20106;-75
2021/03/14 07:09:28;;;;;;;16.55;7.03;;;;;;;;;;5136456;27;20528;-77
2021/03/14 07:11:54;;;;;;;21.73;7.05;;;;;;;;;;5136836;27;20035;-78
2021/03/14 07:14:20;;;;;;;20.23;6.47;;;;;;;;;;5137240;27;20039;-78
2021/03/14 07:16:49;;;;;;;15.32;5.68;;;;;;;;;;5136590;27;20072;-77
2021/03/14 07:19:25;;;;;;;21.00;6.00;;;;;;;;;;5135355;27;20035;-77
2021/03/14 07:22:11;;;;;;;11.18;5.80;;;;;;;;;;5135731;27;20127;-77
2021/03/14 07:24:39;;;;;;;13.82;6.18;;;;;;;;;;5139877;27;20031;-78
2021/03/14 07:27:07;;;;;;;21.80;7.72;;;;;;;;;;5123322;27;20042;-78
2021/03/14 07:29:36;;;;;;;17.85;8.07;;;;;;;;;;5123036;27;20258;-79
2021/03/14 07:32:03;;;;;;;14.68;6.22;;;;;;;;;;5138240;27;20091;-78
2021/03/14 07:34:31;;;;;;;19.42;6.93;;;;;;;;;;5139093;27;20062;-79
2021/03/14 07:36:56;;;;;;;22.52;7.43;;;;;;;;;;5118002;27;20477;-76
2021/03/14 07:39:22;;;;;;;19.58;6.90;;;;;;;;;;5136278;27;20131;-78
2021/03/14 07:41:48;;;;;;;20.45;7.35;;;;;;;;;;5118096;27;20117;-77
2021/03/14 07:44:21;;;;;;;16.10;7.00;;;;;;;;;;5135694;27;20076;-77
2021/03/14 07:46:48;;;;;;;15.10;6.90;;;;;;;;;;5095340;28;20042;-76
2021/03/14 07:49:17;;;;;;;17.98;7.80;;;;;;;;;;5096817;28;20115;-77
2021/03/14 07:51:45;;;;;;;22.13;7.57;;;;;;;;;;5096856;28;20059;-77
2021/03/14 07:54:16;;;;;;;24.63;8.50;;;;;;;;;;5095798;28;20043;-76
2021/03/14 07:56:52;;;;;;;30.92;8.73;;;;;;;;;;5095612;28;20061;-76
2021/03/14 07:59:25;;;;;;;16.63;7.18;;;;;;;;;;5094856;28;20538;-75
2021/03/14 08:01:51;;;;;;;19.73;8.63;;;;;;;;;;5094320;28;20047;-76
2021/03/14 08:04:31;;;;;;;20.15;7.95;;;;;;;;;;5094675;28;20032;-76
2021/03/14 08:06:57;;;;;;;18.17;8.10;;;;;;;;;;5093585;28;20036;-76
2021/03/14 08:09:42;;;;;;;26.92;8.60;;;;;;;;;;5094200;28;20537;-76
2021/03/14 08:12:22;;;;;;;17.08;6.70;;;;;;;;;;5094207;28;20036;-76
2021/03/14 08:14:57;;;;;;;14.80;7.18;;;;;;;;;;5094126;28;20032;-76
2021/03/14 08:17:25;;;;;;;18.63;7.45;;;;;;;;;;5093903;28;20378;-76
2021/03/14 08:19:52;;;;;;;14.18;6.70;;;;;;;;;;5094010;28;20035;-76
2021/03/14 08:22:36;;;;;;;18.23;7.50;;;;;;;;;;5092607;28;20038;-77
2021/03/14 08:25:18;;;;;;;13.43;6.43;;;;;;;;;;5092135;28;20028;-77
2021/03/14 08:27:47;;;;;;;17.63;7.30;;;;;;;;;;5092856;28;20393;-76
2021/03/14 08:30:31;;;;;;;17.52;8.00;;;;;;;;;;5093751;28;20028;-75
2021/03/14 08:33:21;;;;;;;16.08;7.45;;;;;;;;;;5093859;28;20501;-76
2021/03/14 08:35:55;;;;;;;16.27;6.45;;;;;;;;;;5092375;28;20036;-76
2021/03/14 08:38:28;;;;;;;19.52;7.53;;;;;;;;;;5093499;28;20028;-76
2021/03/14 08:41:25;;;;;;;20.17;7.50;;;;;;;;;;5093283;28;20520;-75
2021/03/14 08:44:11;;;;;;;14.63;7.13;;;;;;;;;;5093442;28;20035;-75
2021/03/14 08:46:54;;;;;;;16.55;7.07;;;;;;;;;;5092346;28;20032;-73
2021/03/14 08:49:23;;;;;;;16.42;6.35;;;;;;;;;;5091992;28;20043;-75
2021/03/14 08:51:49;;;;;;;13.13;5.90;;;;;;;;;;5093854;28;20404;-74
2021/03/14 08:54:23;;;;;;;17.23;6.60;;;;;;;;;;5093592;28;20407;-76
2021/03/14 08:56:48;;;;;;;18.60;5.97;;;;;;;;;;5094962;28;20382;-77
2021/03/14 08:59:14;;;;;;;14.32;5.38;;;;;;;;;;5110304;28;20035;-77
2021/03/14 09:01:51;;;;;;;15.05;5.30;;;;;;;;;;5092223;28;20115;-76
2021/03/14 09:04:23;;;;;;;18.45;4.80;;;;;;;;;;5092178;28;20497;-76
2021/03/14 09:07:08;;;;;;;15.98;4.90;;;;;;;;;;5091996;28;20452;-75
2021/03/14 09:09:35;;;;;;;13.20;4.95;;;;;;;;;;5075426;28;20066;-76
2021/03/14 09:12:14;;;;;;;17.80;5.10;;;;;;;;;;5091709;28;20031;-76
2021/03/14 09:14:52;;;;;;;13.85;4.50;;;;;;;;;;5091961;28;20468;-76
2021/03/14 09:17:41;;;;;;;11.93;4.50;;;;;;;;;;5091854;28;20123;-76
2021/03/14 09:20:09;;;;;;;11.95;4.07;;;;;;;;;;5091875;28;20415;-76
2021/03/14 09:22:38;;;;;;;15.35;4.85;;;;;;;;;;5109126;28;20066;-78
2021/03/14 09:25:16;;;;;;;15.88;5.45;;;;;;;;;;5091955;28;20032;-77
2021/03/14 09:27:44;;;;;;;17.75;5.53;;;;;;;;;;5093857;28;20032;-77
2021/03/14 09:30:15;;;;;;;9.05;4.47;;;;;;;;;;5108735;28;20032;-76
2021/03/14 09:32:46;;;;;;;13.07;4.70;;;;;;;;;;5074953;28;20485;-76
2021/03/14 09:35:14;;;;;;;14.43;4.60;;;;;;;;;;5108073;28;20116;-75
2021/03/14 09:37:40;;;;;;;15.57;5.38;;;;;;;;;;5092969;28;20366;-75
2021/03/14 09:40:21;;;;;;;14.82;4.80;;;;;;;;;;5093252;28;20418;-75
2021/03/14 09:42:50;;;;;;;11.30;4.63;;;;;;;;;;5091779;28;20123;-76
2021/03/14 09:45:34;;;;;;;12.27;5.03;;;;;;;;;;5101701;28;20135;-76
2021/03/14 09:48:05;;;;;;;18.83;5.35;;;;;;;;;;5115388;28;20124;-76
2021/03/14 09:51:04;;;;;;;15.30;5.78;;;;;;;;;;5116001;28;20032;-75
2021/03/14 09:53:40;;;;;;;17.23;6.72;;;;;;;;;;5114235;28;20136;-76
2021/03/14 09:56:14;;;;;;;12.93;5.20;;;;;;;;;;5117045;28;20027;-77
2021/03/14 09:59:02;;;;;;;18.63;5.50;;;;;;;;;;5117068;28;20088;-77
2021/03/14 10:01:36;;;;;;;13.80;6.00;;;;;;;;;;5115732;28;20037;-77
2021/03/14 10:04:01;;;;;;;11.95;5.25;;;;;;;;;;5116652;28;20031;-76
2021/03/14 10:06:38;;;;;;;18.90;5.45;;;;;;;;;;5115505;28;20035;-76
2021/03/14 10:09:06;;;;;;;11.02;4.63;;;;;;;;;;5116751;28;20102;-72
2021/03/14 10:11:31;;;;;;;12.98;5.80;;;;;;;;;;5116824;28;20055;-76
2021/03/14 10:14:01;;;;;;;17.67;5.63;;;;;;;;;;5115162;28;20474;-76
2021/03/14 10:16:30;;;;;;;14.45;5.35;;;;;;;;;;5115021;28;20492;-76
2021/03/14 10:19:01;;;;;;;17.23;5.63;;;;;;;;;;5116155;28;20084;-74
2021/03/14 10:21:31;;;;;;;12.25;6.10;;;;;;;;;;5115184;28;20154;-76
2021/03/14 10:24:16;;;;;;;16.52;5.07;;;;;;;;;;5115183;28;20028;-77
2021/03/14 10:27:00;;;;;;;19.48;5.50;;;;;;;;;;5114876;28;20119;-77
2021/03/14 10:29:39;;;;;;;12.35;4.40;;;;;;;;;;5098965;28;20035;-73
2021/03/14 10:32:31;;;;;;;11.60;5.43;;;;;;;;;;5114391;28;20036;-72
2021/03/14 10:35:03;;;;;;;13.63;4.93;;;;;;;;;;5114854;28;20032;-72
2021/03/14 10:37:33;;;;;;;9.65;4.25;;;;;;;;;;5114838;28;20031;-72
2021/03/14 10:40:12;;;;;;;14.77;4.50;;;;;;;;;;5116138;28;20024;-72
2021/03/14 10:42:50;;;;;;;13.73;4.72;;;;;;;;;;5114922;28;20055;-71
2021/03/14 10:45:29;;;;;;;11.32;4.15;;;;;;;;;;5114353;28;20366;-71
2021/03/14 10:48:02;;;;;;;15.20;4.60;;;;;;;;;;5114747;28;20409;-72
2021/03/14 10:50:33;;;;;;;13.52;4.63;;;;;;;;;;5114095;28;20051;-71
2021/03/14 10:53:17;;;;;;;14.25;5.15;;;;;;;;;;5115919;28;20489;-71
2021/03/14 10:55:46;;;;;;;17.90;4.67;;;;;;;;;;5114658;28;20027;-72
2021/03/14 10:58:21;;;;;;;8.93;4.22;;;;;;;;;;5115161;28;20274;-72
2021/03/14 11:01:05;;;;;;;13.95;5.22;;;;;;;;;;5113336;28;20118;-71
2021/03/14 11:03:39;;;;;;;9.73;4.10;;;;;;;;;;5114245;28;20481;-71
2021/03/14 11:06:14;;;;;;;10.82;4.68;;;;;;;;;;5114042;28;20031;-71
2021/03/14 11:09:01;;;;;;;6.75;3.90;;;;;;;;;;5113569;28;20031;-72
2021/03/14 11:11:43;;;;;;;11.68;4.20;;;;;;;;;;5114278;28;20040;-72
2021/03/14 11:14:25;;;;;;;14.90;4.60;;;;;;;;;;5097299;28;20031;-71
2021/03/14 11:17:13;;;;;;;14.20;5.30;;;;;;;;;;5115322;28;20094;-72
2021/03/14 11:19:47;;;;;;;14.75;4.70;;;;;;;;;;5113411;28;20032;-72
2021/03/14 11:22:13;;;;;;;7.38;3.83;;;;;;;;;;5114149;28;20528;-72
2021/03/14 11:24:46;;;;;;;9.50;4.55;;;;;;;;;;5113751;28;20039;-71
2021/03/14 11:27:13;;;;;;;7.65;4.03;;;;;;;;;;5115090;28;20374;-71
2021/03/14 11:29:40;;;;;;;20.38;11.23;;;;;;;;;;5113848;28;20448;-73
2021/03/14 11:32:15;;;;;;;10.73;4.50;;;;;;;;;;5113711;28;20057;-73
2021/03/14 11:34:47;;;;;;;9.60;4.35;;;;;;;;;;5112204;28;20434;-74
2021/03/14 11:37:38;;;;;;;9.65;3.83;;;;;;;;;;5114585;28;20463;-73
2021/03/14 11:40:19;;;;;;;5.45;3.15;;;;;;;;;;5113602;28;20085;-73
2021/03/14 11:42:52;;;;;;;7.90;2.78;;;;;;;;;;5113644;28;20434;-76
2021/03/14 11:45:25;;;;;;;4.63;2.35;;;;;;;;;;5097538;28;20394;-79
2021/03/14 11:47:50;;;;;;;6.63;2.40;;;;;;;;;;5097109;28;20044;-75
2021/03/14 11:50:34;;;;;;;4.38;2.35;;;;;;;;;;5114811;28;20046;-75
2021/03/14 11:53:01;;;;;;;6.75;2.40;;;;;;;;;;5113548;28;20035;-76
2021/03/14 11:55:34;;;;;;;7.28;2.78;;;;;;;;;;5114296;28;20541;-80
2021/03/14 11:58:00;;;;;;;9.55;2.50;;;;;;;;;;5097530;28;20032;-76
2021/03/14 12:00:27;;;;;;;5.63;2.53;;;;;;;;;;5114838;28;20035;-77
2021/03/14 12:02:55;;;;;;;6.90;2.70;;;;;;;;;;5122778;28;20160;-84
2021/03/14 12:05:51;;;;;;;6.10;1.90;;;;;;;;;;5105613;28;20028;-83
2021/03/14 12:08:27;;;;;;;4.18;2.03;;;;;;;;;;5136398;27;20513;-83
2021/03/14 12:10:52;;;;;;;5.70;2.53;;;;;;;;;;5104537;28;20061;-83
2021/03/14 12:13:21;;;;;;;4.00;1.98;;;;;;;;;;5099503;28;20435;-80
2021/03/14 12:15:46;;;;;;;3.85;2.08;;;;;;;;;;5086894;28;20036;-81
2021/03/14 12:18:12;;;;;;;3.90;2.10;;;;;;;;;;5097752;28;20038;-80
2021/03/14 12:20:51;;;;;;;5.25;2.03;;;;;;;;;;5096720;28;20035;-85
2021/03/14 12:23:22;;;;;;;2.88;1.90;;;;;;;;;;5089716;28;20062;-79
2021/03/14 12:25:56;;;;;;;4.38;2.15;;;;;;;;;;5117851;28;20028;-77
2021/03/14 12:28:31;;;;;;;7.55;3.10;;;;;;;;;;5092329;28;20035;-79
2021/03/14 12:30:58;;;;;;;4.38;2.17;;;;;;;;;;5100219;28;20105;-81
2021/03/14 12:33:24;;;;;;;3.33;1.95;;;;;;;;;;5100986;28;20034;-84
2021/03/14 12:35:50;;;;;;;5.82;2.50;;;;;;;;;;5116106;28;20024;-82
2021/03/14 12:38:30;;;;;;;8.30;2.50;;;;;;;;;;5117574;28;20032;-80
2021/03/14 12:40:55;;;;;;;4.03;2.25;;;;;;;;;;5123887;28;20489;-83
2021/03/14 12:43:21;;;;;;;5.70;2.83;;;;;;;;;;5099267;28;20096;-79
2021/03/14 12:45:49;;;;;;;5.70;2.63;;;;;;;;;;5118549;28;20031;-84
2021/03/14 12:48:16;;;;;;;4.20;2.88;;;;;;;;;;5120871;28;20035;-84
2021/03/14 12:50:46;;;;;;;4.78;2.63;;;;;;;;;;5084495;28;20043;-83
2021/03/14 12:53:12;;;;;;;6.93;3.47;;;;;;;;;;5097563;28;20028;-84
2021/03/14 12:55:38;;;;;;;4.93;2.50;;;;;;;;;;5099076;28;20056;-85
2021/03/14 12:58:04;;;;;;;6.15;2.90;;;;;;;;;;5082211;28;20119;-83
2021/03/14 13:00:40;;;;;;;11.13;4.38;;;;;;;;;;5099805;28;20039;-82
2021/03/14 13:03:05;;;;;;;5.50;2.97;;;;;;;;;;5080178;28;20040;-79
2021/03/14 13:05:33;;;;;;;7.72;3.95;;;;;;;;;;5099404;28;20043;-81
2021/03/14 13:08:00;;;;;;;6.90;3.33;;;;;;;;;;5095778;28;20036;-77
2021/03/14 13:10:25;;;;;;;8.38;4.15;;;;;;;;;;5094192;28;20036;-78
2021/03/14 13:12:51;;;;;;;11.23;4.05;;;;;;;;;;5093720;28;20032;-74
2021/03/14 13:15:17;;;;;;;8.00;4.25;;;;;;;;;;5075269;28;20366;-74
2021/03/14 13:17:44;;;;;;;6.53;3.63;;;;;;;;;;5093106;28;20040;-73
2021/03/14 13:20:11;;;;;;;189.30;122.82;;;;;;;;;;5113970;28;20063;-74
2021/03/14 13:22:36;;;;;;;12.27;7.13;;;;;;;;;;5116612;28;20471;-74
2021/03/14 13:25:03;;;;;;;9.55;4.00;;;;;;;;;;5117269;28;20496;-73
2021/03/14 13:27:29;;;;;;;6.43;4.10;;;;;;;;;;5117692;28;20032;-74
2021/03/14 13:29:54;;;;;;;6.70;4.35;;;;;;;;;;5117668;28;20453;-73
2021/03/14 13:32:21;;;;;;;8.13;4.25;;;;;;;;;;5117471;28;20043;-73
2021/03/14 13:34:46;;;;;;;9.93;4.15;;;;;;;;;;5117253;28;20031;-74
2021/03/14 13:37:12;;;;;;;8.27;4.45;;;;;;;;;;5116103;28;20043;-73
2021/03/14 13:39:37;;;;;;;9.82;5.60;;;;;;;;;;5117488;28;20525;-73
2021/03/14 13:42:04;;;;;;;6.47;3.72;;;;;;;;;;5116116;28;20512;-73
2021/03/14 13:44:30;;;;;;;9.23;4.13;;;;;;;;;;5117561;27;20088;-73
2021/03/14 13:46:55;;;;;;;6.72;4.15;;;;;;;;;;5137749;27;20038;-73
2021/03/14 13:49:22;;;;;;;7.75;3.95;;;;;;;;;;5118573;27;20035;-73
2021/03/14 13:51:47;;;;;;;6.38;4.18;;;;;;;;;;5137774;27;20384;-74
2021/03/14 13:54:13;;;;;;;6.13;4.60;;;;;;;;;;5137236;27;20038;-74
2021/03/14 13:56:39;;;;;;;7.13;4.40;;;;;;;;;;5137468;27;20114;-74
2021/03/14 13:59:05;;;;;;;5.78;4.07;;;;;;;;;;5137615;27;20035;-73
2021/03/14 14:01:30;;;;;;;7.03;3.50;;;;;;;;;;5137521;27;20426;-74
2021/03/14 14:03:55;;;;;;;5.32;3.17;;;;;;;;;;5137320;27;20118;-74
2021/03/14 14:06:21;;;;;;;6.07;3.72;;;;;;;;;;5137466;27;20114;-73
2021/03/14 14:08:46;;;;;;;8.40;4.43;;;;;;;;;;5137266;27;20076;-73
2021/03/14 14:11:12;;;;;;;6.57;4.07;;;;;;;;;;5119118;27;20031;-73
2021/03/14 14:13:37;;;;;;;8.57;4.57;;;;;;;;;;5118963;27;20035;-73
2021/03/14 14:16:03;;;;;;;8.82;3.85;;;;;;;;;;5137257;27;20212;-73
2021/03/14 14:18:29;;;;;;;8.85;4.30;;;;;;;;;;5137147;27;20541;-74
2021/03/14 14:20:55;;;;;;;7.38;4.38;;;;;;;;;;5137245;27;20073;-73
2021/03/14 14:23:21;;;;;;;8.10;4.13;;;;;;;;;;5137182;27;20035;-73
2021/03/14 14:25:47;;;;;;;7.30;4.22;;;;;;;;;;5137058;27;20080;-74
2021/03/14 14:28:15;;;;;;;6.32;3.90;;;;;;;;;;5118675;27;20038;-74
2021/03/14 14:30:40;;;;;;;6.95;3.40;;;;;;;;;;5136982;27;20375;-73
2021/03/14 14:33:06;;;;;;;6.18;3.72;;;;;;;;;;5136186;27;20023;-73
2021/03/14 14:35:32;;;;;;;7.22;3.90;;;;;;;;;;5115705;27;20038;-73
2021/03/14 14:38:00;;;;;;;6.45;3.72;;;;;;;;;;5125181;27;20020;-74
2021/03/14 14:40:26;;;;;;;6.50;3.15;;;;;;;;;;5134020;27;20031;-74
2021/03/14 14:42:51;;;;;;;9.05;3.50;;;;;;;;;;5136838;27;20027;-73
2021/03/14 14:45:18;;;;;;;7.70;3.45;;;;;;;;;;5136357;27;20515;-74
2021/03/14 14:47:43;;;;;;;6.03;3.20;;;;;;;;;;5136594;27;20106;-74
2021/03/14 14:50:10;;;;;;;5.88;3.10;;;;;;;;;;5117659;27;20433;-75
2021/03/14 14:52:37;;;;;;;4.97;3.45;;;;;;;;;;5136685;27;20035;-75